createdAt,value
2017-09-21T00:00:20.755Z,82.81
2017-09-21T00:01:20.352Z,83.00
2017-09-21T00:02:20.267Z,82.81
2017-09-21T00:03:20.284Z,82.71
2017-09-21T00:04:20.231Z,83.00
2017-09-21T00:05:20.231Z,82.43
2017-09-21T00:06:20.237Z,82.34
2017-09-21T00:07:20.197Z,82.43
2017-09-21T00:08:20.185Z,83.19
2017-09-21T00:09:20.144Z,83.19
2017-09-21T00:10:20.146Z,82.71
2017-09-21T00:11:20.115Z,83.10
2017-09-21T00:12:20.121Z,82.71
2017-09-21T00:13:20.061Z,82.71
2017-09-21T00:14:20.056Z,83.00
2017-09-21T00:15:20.036Z,82.91
2017-09-21T00:16:20.019Z,82.71
2017-09-21T00:17:20.000Z,82.62
2017-09-21T00:18:20.035Z,82.81
2017-09-21T00:19:19.960Z,82.62
2017-09-21T00:20:19.941Z,82.71
2017-09-21T00:21:19.907Z,82.91
2017-09-21T00:22:19.916Z,82.91
2017-09-21T00:23:19.864Z,82.91
2017-09-21T00:24:19.857Z,82.71
2017-09-21T00:25:19.866Z,82.81
2017-09-21T00:26:19.808Z,82.71
2017-09-21T00:27:19.802Z,82.71
2017-09-21T00:28:19.778Z,82.91
2017-09-21T00:29:19.770Z,82.81
2017-09-21T00:30:19.739Z,82.62
2017-09-21T00:31:19.744Z,83.19
2017-09-21T00:32:19.702Z,82.91
2017-09-21T00:33:19.684Z,83.06
2017-09-21T00:34:19.668Z,83.10
2017-09-21T00:35:19.650Z,82.77
2017-09-21T00:36:19.624Z,82.96
2017-09-21T00:37:19.601Z,83.72
2017-09-21T00:38:19.599Z,83.62
2017-09-21T00:39:19.559Z,83.53
2017-09-21T00:40:19.555Z,83.34
2017-09-21T00:41:19.545Z,83.62
2017-09-21T00:42:19.523Z,83.34
2017-09-21T00:43:19.495Z,83.44
2017-09-21T00:44:19.487Z,83.44
2017-09-21T00:45:19.456Z,83.62
2017-09-21T00:46:19.459Z,83.53
2017-09-21T00:47:19.422Z,83.44
2017-09-21T00:48:19.394Z,83.62
2017-09-21T00:49:19.388Z,83.53
2017-09-21T00:50:19.349Z,83.53
2017-09-21T00:51:19.348Z,83.62
2017-09-21T00:52:19.318Z,83.44
2017-09-21T00:53:19.301Z,83.62
2017-09-21T00:54:19.306Z,83.44
2017-09-21T00:55:19.254Z,83.44
2017-09-21T00:56:19.243Z,83.44
2017-09-21T00:57:19.249Z,83.34
2017-09-21T00:58:19.222Z,83.72
2017-09-21T00:59:19.200Z,84.01
2017-09-21T01:00:19.182Z,84.10
2017-09-21T01:01:19.146Z,84.10
2017-09-21T01:02:19.140Z,83.53
2017-09-21T01:03:19.111Z,83.53
2017-09-21T01:04:19.083Z,83.53
2017-09-21T01:05:19.099Z,83.62
2017-09-21T01:06:19.064Z,83.34
2017-09-21T01:07:19.059Z,83.34
2017-09-21T01:08:19.024Z,83.34
2017-09-21T01:09:18.996Z,83.15
2017-09-21T01:10:18.989Z,83.34
2017-09-21T01:11:18.961Z,83.34
2017-09-21T01:12:18.956Z,83.44
2017-09-21T01:13:18.938Z,83.44
2017-09-21T01:14:18.922Z,83.53
2017-09-21T01:15:18.872Z,83.53
2017-09-21T01:16:18.864Z,83.62
2017-09-21T01:17:18.861Z,83.62
2017-09-21T01:18:18.828Z,83.34
2017-09-21T01:19:18.812Z,83.44
2017-09-21T01:20:18.789Z,83.34
2017-09-21T01:21:18.770Z,83.34
2017-09-21T01:22:18.739Z,83.44
2017-09-21T01:23:19.314Z,83.15
2017-09-21T01:24:18.721Z,83.15
2017-09-21T01:25:18.699Z,83.44
2017-09-21T01:26:18.694Z,83.53
2017-09-21T01:27:18.658Z,83.48
2017-09-21T01:28:18.612Z,83.34
2017-09-21T01:29:18.619Z,83.44
2017-09-21T01:30:18.607Z,83.53
2017-09-21T01:31:18.566Z,83.15
2017-09-21T01:32:18.550Z,83.15
2017-09-21T01:33:18.555Z,83.34
2017-09-21T01:34:18.526Z,83.34
2017-09-21T01:35:18.488Z,83.34
2017-09-21T01:36:18.470Z,83.25
2017-09-21T01:37:18.474Z,83.39
2017-09-21T01:38:18.428Z,83.19
2017-09-21T01:39:18.416Z,83.67
2017-09-21T01:40:18.396Z,83.19
2017-09-21T01:41:18.366Z,83.39
2017-09-21T01:42:18.350Z,83.39
2017-09-21T01:43:18.329Z,83.34
2017-09-21T01:44:18.311Z,83.39
2017-09-21T01:45:18.308Z,83.39
2017-09-21T01:46:18.279Z,83.19
2017-09-21T01:47:18.259Z,83.58
2017-09-21T01:48:18.257Z,83.19
2017-09-21T01:49:18.236Z,83.58
2017-09-21T01:50:18.198Z,83.48
2017-09-21T01:51:18.205Z,83.39
2017-09-21T01:52:18.191Z,83.39
2017-09-21T01:53:18.176Z,83.39
2017-09-21T01:54:18.130Z,83.58
2017-09-21T01:55:18.152Z,83.39
2017-09-21T01:56:18.091Z,83.58
2017-09-21T01:57:18.076Z,83.39
2017-09-21T01:58:18.066Z,83.48
2017-09-21T01:59:18.026Z,83.48
2017-09-21T02:00:18.000Z,83.48
2017-09-21T02:01:18.006Z,83.39
2017-09-21T02:02:17.988Z,83.58
2017-09-21T02:03:17.953Z,83.67
2017-09-21T02:04:17.944Z,83.39
2017-09-21T02:05:17.937Z,84.14
2017-09-21T02:06:17.904Z,84.33
2017-09-21T02:07:17.863Z,84.24
2017-09-21T02:08:17.878Z,84.33
2017-09-21T02:09:17.862Z,83.48
2017-09-21T02:10:17.823Z,84.24
2017-09-21T02:11:17.797Z,84.24
2017-09-21T02:12:17.777Z,83.95
2017-09-21T02:13:17.783Z,84.05
2017-09-21T02:14:17.752Z,83.86
2017-09-21T02:15:17.740Z,83.91
2017-09-21T02:16:17.717Z,83.67
2017-09-21T02:17:17.700Z,84.20
2017-09-21T02:18:17.703Z,83.72
2017-09-21T02:19:17.649Z,83.82
2017-09-21T02:20:17.644Z,83.91
2017-09-21T02:21:17.619Z,83.91
2017-09-21T02:22:17.590Z,84.39
2017-09-21T02:23:17.580Z,84.39
2017-09-21T02:24:17.551Z,84.48
2017-09-21T02:25:17.524Z,84.29
2017-09-21T02:26:17.502Z,83.95
2017-09-21T02:27:17.488Z,84.29
2017-09-21T02:28:17.480Z,84.14
2017-09-21T02:29:17.477Z,84.14
2017-09-21T02:30:17.441Z,83.86
2017-09-21T02:31:17.421Z,83.86
2017-09-21T02:32:17.410Z,84.05
2017-09-21T02:33:17.386Z,83.86
2017-09-21T02:34:17.379Z,84.14
2017-09-21T02:35:17.327Z,84.01
2017-09-21T02:36:17.321Z,84.01
2017-09-21T02:37:17.326Z,84.48
2017-09-21T02:38:17.299Z,84.10
2017-09-21T02:39:17.257Z,84.10
2017-09-21T02:40:17.260Z,84.29
2017-09-21T02:41:17.226Z,84.20
2017-09-21T02:42:17.198Z,84.20
2017-09-21T02:43:17.212Z,84.10
2017-09-21T02:44:17.181Z,84.77
2017-09-21T02:45:17.174Z,84.86
2017-09-21T02:46:17.141Z,84.77
2017-09-21T02:47:17.119Z,84.86
2017-09-21T02:48:17.114Z,84.67
2017-09-21T02:49:17.063Z,84.86
2017-09-21T02:50:17.062Z,84.95
2017-09-21T02:51:17.038Z,84.67
2017-09-21T02:52:17.015Z,84.77
2017-09-21T02:53:16.988Z,84.86
2017-09-21T02:54:16.972Z,84.77
2017-09-21T02:55:16.952Z,84.67
2017-09-21T02:56:16.933Z,84.67
2017-09-21T02:57:16.925Z,84.67
2017-09-21T02:58:16.952Z,84.86
2017-09-21T02:59:16.916Z,84.48
2017-09-21T03:00:16.868Z,84.48
2017-09-21T03:01:16.849Z,84.67
2017-09-21T03:02:16.820Z,84.29
2017-09-21T03:03:16.814Z,84.67
2017-09-21T03:04:16.786Z,84.77
2017-09-21T03:05:16.771Z,84.29
2017-09-21T03:06:18.318Z,84.67
2017-09-21T03:07:16.742Z,84.67
2017-09-21T03:08:16.721Z,84.77
2017-09-21T03:09:16.694Z,84.39
2017-09-21T03:10:16.660Z,84.77
2017-09-21T03:11:16.653Z,84.48
2017-09-21T03:12:16.642Z,84.39
2017-09-21T03:13:16.598Z,85.05
2017-09-21T03:14:16.595Z,84.10
2017-09-21T03:15:16.578Z,84.29
2017-09-21T03:16:16.553Z,84.20
2017-09-21T03:17:16.541Z,83.91
2017-09-21T03:18:16.518Z,83.91
2017-09-21T03:19:16.510Z,84.58
2017-09-21T03:20:16.538Z,84.58
2017-09-21T03:21:16.443Z,84.29
2017-09-21T03:22:16.432Z,84.29
2017-09-21T03:23:16.413Z,84.48
2017-09-21T03:24:16.419Z,84.20
2017-09-21T03:25:16.364Z,84.05
2017-09-21T03:26:16.371Z,84.43
2017-09-21T03:27:16.346Z,84.33
2017-09-21T03:28:16.313Z,85.00
2017-09-21T03:29:16.310Z,84.52
2017-09-21T03:30:16.283Z,84.33
2017-09-21T03:31:16.286Z,84.43
2017-09-21T03:32:16.282Z,84.72
2017-09-21T03:33:16.247Z,84.81
2017-09-21T03:34:16.199Z,84.52
2017-09-21T03:35:16.186Z,85.00
2017-09-21T03:36:16.158Z,85.00
2017-09-21T03:37:16.146Z,85.00
2017-09-21T03:38:16.127Z,85.00
2017-09-21T03:39:16.120Z,84.91
2017-09-21T03:40:16.079Z,84.43
2017-09-21T03:41:16.075Z,84.52
2017-09-21T03:42:16.074Z,84.72
2017-09-21T03:43:16.048Z,84.72
2017-09-21T03:44:16.016Z,84.81
2017-09-21T03:45:15.991Z,84.91
2017-09-21T03:46:15.976Z,84.72
2017-09-21T03:47:15.960Z,84.81
2017-09-21T03:48:15.942Z,84.91
2017-09-21T03:49:15.907Z,84.72
2017-09-21T03:50:15.895Z,84.72
2017-09-21T03:51:15.909Z,84.72
2017-09-21T03:52:15.878Z,84.81
2017-09-21T03:53:16.335Z,84.81
2017-09-21T03:54:15.830Z,84.81
2017-09-21T03:55:15.805Z,85.00
2017-09-21T03:56:15.776Z,84.52
2017-09-21T03:57:15.755Z,84.72
2017-09-21T03:58:15.762Z,84.91
2017-09-21T03:59:15.743Z,84.72
2017-09-21T04:00:15.717Z,84.72
2017-09-21T04:01:15.693Z,84.91
2017-09-21T04:02:15.698Z,84.81
2017-09-21T04:03:15.660Z,84.81
2017-09-21T04:04:15.627Z,84.33
2017-09-21T04:05:15.614Z,85.00
2017-09-21T04:06:15.601Z,84.91
2017-09-21T04:07:15.583Z,84.72
2017-09-21T04:08:15.556Z,84.72
2017-09-21T04:09:15.528Z,84.81
2017-09-21T04:10:15.519Z,84.72
2017-09-21T04:11:15.511Z,84.91
2017-09-21T04:12:15.495Z,84.52
2017-09-21T04:13:15.444Z,84.72
2017-09-21T04:14:15.449Z,84.72
2017-09-21T04:15:15.432Z,84.91
2017-09-21T04:16:15.414Z,84.52
2017-09-21T04:17:15.384Z,84.52
2017-09-21T04:18:15.363Z,84.81
2017-09-21T04:19:15.363Z,84.62
2017-09-21T04:20:15.340Z,84.72
2017-09-21T04:21:15.309Z,84.52
2017-09-21T04:22:15.307Z,84.52
2017-09-21T04:23:15.314Z,84.81
2017-09-21T04:24:15.227Z,84.91
2017-09-21T04:25:15.218Z,84.72
2017-09-21T04:26:15.214Z,84.81
2017-09-21T04:27:15.188Z,84.72
2017-09-21T04:28:15.168Z,84.91
2017-09-21T04:29:15.166Z,84.91
2017-09-21T04:30:15.160Z,84.81
2017-09-21T04:31:15.145Z,84.91
2017-09-21T04:32:15.105Z,84.81
2017-09-21T04:33:15.087Z,84.95
2017-09-21T04:34:15.055Z,84.95
2017-09-21T04:35:15.066Z,84.76
2017-09-21T04:36:15.023Z,84.85
2017-09-21T04:37:14.979Z,84.95
2017-09-21T04:38:15.005Z,84.85
2017-09-21T04:39:14.959Z,84.91
2017-09-21T04:40:14.961Z,84.85
2017-09-21T04:41:14.914Z,84.28
2017-09-21T04:42:14.926Z,84.95
2017-09-21T04:43:14.886Z,84.28
2017-09-21T04:44:14.873Z,84.19
2017-09-21T04:45:14.833Z,84.09
2017-09-21T04:46:14.830Z,84.28
2017-09-21T04:47:14.821Z,85.04
2017-09-21T04:48:14.804Z,84.19
2017-09-21T04:49:14.775Z,84.28
2017-09-21T04:50:14.749Z,84.38
2017-09-21T04:51:14.748Z,84.47
2017-09-21T04:52:14.705Z,84.28
2017-09-21T04:53:14.707Z,84.19
2017-09-21T04:54:14.690Z,84.28
2017-09-21T04:55:14.663Z,84.28
2017-09-21T04:56:14.640Z,84.47
2017-09-21T04:57:14.621Z,84.19
2017-09-21T04:58:14.587Z,84.19
2017-09-21T04:59:14.581Z,84.47
2017-09-21T05:00:14.552Z,84.38
2017-09-21T05:01:14.561Z,84.38
2017-09-21T05:02:14.531Z,84.38
2017-09-21T05:03:14.509Z,84.38
2017-09-21T05:04:14.490Z,84.28
2017-09-21T05:05:14.480Z,84.28
2017-09-21T05:06:14.440Z,84.19
2017-09-21T05:07:14.427Z,84.38
2017-09-21T05:08:14.400Z,84.19
2017-09-21T05:09:14.403Z,84.28
2017-09-21T05:10:14.390Z,84.56
2017-09-21T05:11:14.861Z,84.28
2017-09-21T05:12:14.330Z,84.28
2017-09-21T05:13:14.309Z,84.28
2017-09-21T05:14:14.346Z,84.19
2017-09-21T05:15:14.302Z,84.56
2017-09-21T05:16:14.278Z,83.90
2017-09-21T05:17:14.354Z,84.38
2017-09-21T05:18:14.352Z,84.09
2017-09-21T05:19:14.202Z,84.00
2017-09-21T05:20:14.185Z,84.09
2017-09-21T05:21:14.165Z,83.90
2017-09-21T05:22:14.165Z,83.90
2017-09-21T05:23:14.133Z,84.00
2017-09-21T05:24:14.100Z,84.09
2017-09-21T05:25:14.089Z,83.90
2017-09-21T05:26:14.077Z,84.00
2017-09-21T05:27:14.052Z,84.00
2017-09-21T05:28:14.027Z,83.90
2017-09-21T05:29:14.025Z,84.00
2017-09-21T05:30:13.985Z,84.19
2017-09-21T05:31:13.982Z,84.19
2017-09-21T05:32:15.883Z,84.13
2017-09-21T05:33:13.933Z,84.00
2017-09-21T05:34:13.932Z,84.13
2017-09-21T05:35:13.886Z,84.09
2017-09-21T05:36:13.900Z,84.00
2017-09-21T05:37:13.887Z,84.00
2017-09-21T05:38:13.879Z,84.09
2017-09-21T05:39:13.822Z,84.09
2017-09-21T05:40:13.809Z,84.00
2017-09-21T05:41:13.829Z,83.90
2017-09-21T05:42:13.770Z,84.28
2017-09-21T05:43:13.748Z,84.47
2017-09-21T05:44:13.746Z,84.47
2017-09-21T05:45:13.718Z,84.76
2017-09-21T05:46:13.702Z,84.38
2017-09-21T05:47:13.689Z,84.38
2017-09-21T05:48:13.665Z,84.19
2017-09-21T05:49:13.647Z,84.66
2017-09-21T05:50:13.639Z,84.28
2017-09-21T05:51:13.609Z,84.47
2017-09-21T05:52:13.617Z,84.61
2017-09-21T05:53:13.577Z,84.47
2017-09-21T05:54:13.536Z,84.38
2017-09-21T05:55:13.531Z,84.56
2017-09-21T05:56:13.518Z,84.38
2017-09-21T05:57:13.495Z,84.66
2017-09-21T05:58:13.475Z,84.47
2017-09-21T05:59:13.486Z,84.52
2017-09-21T06:00:13.429Z,83.94
2017-09-21T06:01:13.428Z,83.94
2017-09-21T06:02:13.443Z,84.23
2017-09-21T06:03:13.371Z,84.13
2017-09-21T06:04:13.378Z,84.33
2017-09-21T06:05:13.373Z,84.33
2017-09-21T06:06:13.347Z,83.65
2017-09-21T06:07:13.316Z,84.04
2017-09-21T06:08:13.323Z,84.04
2017-09-21T06:09:13.270Z,83.85
2017-09-21T06:10:13.888Z,84.13
2017-09-21T06:11:13.223Z,83.94
2017-09-21T06:12:13.238Z,84.42
2017-09-21T06:13:13.216Z,84.23
2017-09-21T06:14:13.179Z,83.75
2017-09-21T06:15:13.162Z,83.56
2017-09-21T06:16:13.137Z,83.56
2017-09-21T06:17:13.143Z,83.75
2017-09-21T06:18:13.109Z,83.56
2017-09-21T06:19:13.082Z,83.47
2017-09-21T06:20:13.070Z,83.85
2017-09-21T06:21:13.073Z,83.75
2017-09-21T06:22:13.028Z,83.47
2017-09-21T06:23:13.016Z,83.47
2017-09-21T06:24:12.987Z,83.47
2017-09-21T06:25:13.017Z,83.85
2017-09-21T06:26:12.959Z,83.28
2017-09-21T06:27:12.951Z,83.65
2017-09-21T06:28:12.911Z,83.47
2017-09-21T06:29:12.898Z,83.70
2017-09-21T06:30:13.742Z,83.32
2017-09-21T06:33:08.472Z,83.89
2017-09-21T06:34:08.952Z,83.13
2017-09-21T06:36:06.580Z,83.22
2017-09-21T06:37:03.812Z,83.13
2017-09-21T06:38:02.863Z,83.32
2017-09-21T06:39:03.279Z,83.03
2017-09-21T06:40:02.903Z,83.22
2017-09-21T06:41:02.885Z,83.22
2017-09-21T06:42:04.213Z,83.03
2017-09-21T06:43:03.212Z,83.41
2017-09-21T06:44:05.320Z,83.13
2017-09-21T06:45:08.258Z,83.03
2017-09-21T06:46:04.377Z,82.93
2017-09-21T06:47:03.112Z,82.84
2017-09-21T06:48:03.425Z,83.13
2017-09-21T06:49:03.593Z,83.22
2017-09-21T06:50:03.592Z,83.13
2017-09-21T06:51:03.837Z,82.93
2017-09-21T06:52:04.120Z,82.79
2017-09-21T06:53:03.398Z,82.89
2017-09-21T06:54:03.488Z,83.13
2017-09-21T06:55:02.569Z,83.07
2017-09-21T06:56:02.953Z,82.98
2017-09-21T06:57:03.793Z,83.17
2017-09-21T06:58:02.928Z,82.69
2017-09-21T06:59:03.482Z,82.79
2017-09-21T07:00:02.428Z,82.69
2017-09-21T07:01:02.403Z,82.69
2017-09-21T07:02:02.399Z,82.50
2017-09-21T07:03:02.356Z,82.41
2017-09-21T07:04:02.393Z,82.31
2017-09-21T07:05:02.385Z,82.41
2017-09-21T07:06:02.312Z,82.41
2017-09-21T07:07:02.292Z,82.50
2017-09-21T07:08:02.285Z,82.50
2017-09-21T07:09:02.264Z,82.41
2017-09-21T07:10:02.250Z,82.50
2017-09-21T07:11:02.222Z,82.41
2017-09-21T07:12:02.210Z,82.41
2017-09-21T07:13:02.212Z,82.60
2017-09-21T07:14:02.164Z,82.79
2017-09-21T07:15:02.172Z,82.60
2017-09-21T07:16:02.151Z,82.12
2017-09-21T07:17:02.116Z,81.97
2017-09-21T07:18:02.085Z,82.17
2017-09-21T07:19:02.087Z,82.45
2017-09-21T07:20:02.094Z,82.17
2017-09-21T07:21:02.061Z,81.88
2017-09-21T07:22:02.058Z,81.97
2017-09-21T07:23:02.014Z,81.49
2017-09-21T07:24:01.987Z,81.97
2017-09-21T07:25:01.976Z,82.07
2017-09-21T07:26:01.984Z,81.35
2017-09-21T07:27:01.955Z,81.15
2017-09-21T07:28:01.951Z,80.96
2017-09-21T07:29:01.893Z,81.35
2017-09-21T07:30:01.908Z,81.25
2017-09-21T07:31:01.860Z,81.25
2017-09-21T07:32:01.908Z,81.35
2017-09-21T07:33:01.850Z,81.54
2017-09-21T07:34:01.808Z,81.73
2017-09-21T07:35:01.897Z,81.54
2017-09-21T07:36:02.804Z,81.97
2017-09-21T07:37:01.815Z,81.63
2017-09-21T07:38:01.783Z,81.63
2017-09-21T07:39:01.772Z,81.54
2017-09-21T07:40:01.777Z,81.54
2017-09-21T07:41:01.746Z,81.35
2017-09-21T07:42:01.742Z,81.25
2017-09-21T07:43:01.758Z,81.25
2017-09-21T07:44:02.487Z,81.15
2017-09-21T07:45:12.391Z,81.06
2017-09-21T07:46:58.781Z,81.44
2017-09-21T07:48:02.240Z,81.15
2017-09-21T07:48:56.651Z,81.44
2017-09-21T07:49:56.722Z,81.15
2017-09-21T07:50:58.187Z,81.06
2017-09-21T07:51:57.335Z,81.35
2017-09-21T07:52:57.621Z,81.44
2017-09-21T07:53:56.457Z,81.15
2017-09-21T07:54:56.497Z,81.25
2017-09-21T07:55:56.466Z,81.35
2017-09-21T07:56:56.422Z,80.87
2017-09-21T07:57:56.404Z,81.35
2017-09-21T07:58:56.415Z,81.25
2017-09-21T07:59:56.307Z,81.15
2017-09-21T08:00:56.276Z,81.35
2017-09-21T08:01:56.255Z,81.82
2017-09-21T08:02:56.383Z,81.44
2017-09-21T08:03:56.268Z,81.20
2017-09-21T08:04:56.333Z,81.29
2017-09-21T08:05:56.328Z,81.29
2017-09-21T08:06:56.227Z,81.15
2017-09-21T08:07:56.212Z,81.44
2017-09-21T08:08:56.261Z,81.35
2017-09-21T08:09:56.218Z,81.63
2017-09-21T08:10:56.211Z,81.92
2017-09-21T08:11:56.170Z,81.92
2017-09-21T08:12:56.146Z,82.20
2017-09-21T08:13:56.094Z,81.54
2017-09-21T08:14:56.116Z,82.01
2017-09-21T08:15:56.019Z,81.63
2017-09-21T08:16:56.014Z,81.44
2017-09-21T08:17:56.033Z,81.25
2017-09-21T08:18:56.022Z,81.29
2017-09-21T08:19:56.026Z,81.58
2017-09-21T08:20:55.987Z,81.29
2017-09-21T08:21:55.970Z,80.72
2017-09-21T08:22:56.030Z,80.91
2017-09-21T08:23:55.907Z,81.01
2017-09-21T08:24:55.888Z,80.91
2017-09-21T08:25:55.887Z,80.53
2017-09-21T08:26:55.841Z,80.62
2017-09-21T08:27:55.841Z,80.62
2017-09-21T08:28:55.801Z,80.91
2017-09-21T08:29:55.804Z,81.58
2017-09-21T08:30:55.761Z,81.15
2017-09-21T08:31:55.784Z,81.29
2017-09-21T08:32:55.743Z,81.38
2017-09-21T08:33:55.767Z,81.06
2017-09-21T08:34:55.712Z,80.87
2017-09-21T08:35:55.681Z,81.15
2017-09-21T08:36:55.670Z,81.38
2017-09-21T08:37:55.639Z,81.38
2017-09-21T08:38:55.640Z,81.48
2017-09-21T08:39:55.617Z,81.58
2017-09-21T08:40:55.615Z,81.10
2017-09-21T08:41:55.587Z,80.72
2017-09-21T08:42:55.580Z,80.91
2017-09-21T08:43:55.579Z,81.01
2017-09-21T08:44:55.529Z,80.57
2017-09-21T08:45:55.492Z,80.76
2017-09-21T08:46:55.492Z,80.09
2017-09-21T08:47:55.445Z,80.38
2017-09-21T08:48:55.448Z,80.47
2017-09-21T08:49:55.423Z,80.38
2017-09-21T08:50:55.444Z,79.80
2017-09-21T08:51:55.414Z,79.90
2017-09-21T08:52:56.068Z,80.19
2017-09-21T08:53:55.358Z,79.80
2017-09-21T08:54:55.366Z,80.09
2017-09-21T08:55:55.314Z,79.80
2017-09-21T08:56:55.332Z,79.71
2017-09-21T08:57:55.287Z,79.99
2017-09-21T08:58:55.292Z,79.90
2017-09-21T08:59:55.277Z,79.90
2017-09-21T09:00:55.259Z,79.61
2017-09-21T09:01:55.224Z,79.61
2017-09-21T09:02:55.212Z,79.61
2017-09-21T09:03:55.205Z,79.80
2017-09-21T09:04:55.202Z,79.99
2017-09-21T09:05:55.163Z,79.80
2017-09-21T09:06:55.137Z,80.47
2017-09-21T09:07:55.137Z,80.19
2017-09-21T09:08:55.120Z,79.90
2017-09-21T09:09:55.100Z,79.80
2017-09-21T09:10:55.114Z,79.90
2017-09-21T09:11:55.088Z,80.09
2017-09-21T09:12:55.054Z,79.99
2017-09-21T09:13:55.020Z,80.19
2017-09-21T09:14:55.071Z,80.19
2017-09-21T09:15:55.080Z,79.80
2017-09-21T09:16:54.990Z,79.71
2017-09-21T09:17:54.963Z,79.71
2017-09-21T09:18:54.993Z,79.80
2017-09-21T09:19:54.915Z,79.80
2017-09-21T09:20:54.910Z,80.09
2017-09-21T09:21:54.883Z,79.27
2017-09-21T09:22:54.886Z,79.36
2017-09-21T09:23:54.871Z,79.17
2017-09-21T09:24:54.871Z,79.17
2017-09-21T09:25:54.841Z,79.36
2017-09-21T09:26:54.804Z,79.46
2017-09-21T09:27:54.829Z,79.08
2017-09-21T09:28:54.807Z,79.08
2017-09-21T09:29:54.764Z,79.17
2017-09-21T09:30:54.735Z,79.08
2017-09-21T09:31:54.753Z,79.27
2017-09-21T09:32:54.711Z,78.60
2017-09-21T09:33:54.682Z,79.08
2017-09-21T09:34:54.695Z,78.70
2017-09-21T09:35:54.669Z,78.51
2017-09-21T09:36:54.645Z,78.64
2017-09-21T09:37:54.631Z,78.55
2017-09-21T09:38:54.624Z,78.26
2017-09-21T09:39:54.616Z,78.36
2017-09-21T09:40:54.588Z,78.16
2017-09-21T09:41:54.575Z,78.36
2017-09-21T09:42:54.606Z,78.16
2017-09-21T09:43:54.566Z,78.26
2017-09-21T09:44:54.565Z,78.55
2017-09-21T09:45:54.612Z,78.55
2017-09-21T09:46:54.477Z,78.16
2017-09-21T09:47:54.485Z,78.26
2017-09-21T09:48:54.473Z,78.45
2017-09-21T09:49:54.546Z,78.16
2017-09-21T09:50:54.464Z,77.87
2017-09-21T09:51:54.442Z,77.69
2017-09-21T09:52:54.385Z,77.78
2017-09-21T09:53:54.412Z,77.87
2017-09-21T09:54:54.389Z,77.87
2017-09-21T09:55:54.424Z,77.97
2017-09-21T09:56:54.377Z,78.07
2017-09-21T09:57:54.384Z,77.50
2017-09-21T09:58:54.308Z,77.30
2017-09-21T09:59:54.280Z,77.59
2017-09-21T10:00:54.302Z,77.11
2017-09-21T10:01:54.279Z,77.40
2017-09-21T10:02:54.254Z,77.21
2017-09-21T10:03:54.227Z,77.21
2017-09-21T10:04:54.219Z,77.69
2017-09-21T10:05:54.310Z,77.50
2017-09-21T10:06:54.196Z,77.15
2017-09-21T10:07:54.186Z,77.34
2017-09-21T10:08:54.159Z,77.15
2017-09-21T10:09:54.147Z,76.96
2017-09-21T10:10:54.137Z,76.86
2017-09-21T10:11:54.172Z,76.86
2017-09-21T10:12:54.094Z,76.67
2017-09-21T10:13:54.153Z,76.86
2017-09-21T10:14:54.057Z,76.77
2017-09-21T10:15:54.080Z,77.06
2017-09-21T10:16:54.041Z,77.06
2017-09-21T10:17:54.042Z,76.48
2017-09-21T10:18:54.037Z,76.96
2017-09-21T10:19:53.971Z,76.29
2017-09-21T10:20:54.000Z,76.57
2017-09-21T10:21:54.010Z,76.77
2017-09-21T10:22:53.962Z,77.06
2017-09-21T10:23:53.922Z,77.44
2017-09-21T10:24:53.866Z,76.96
2017-09-21T10:25:53.875Z,76.96
2017-09-21T10:26:53.858Z,76.77
2017-09-21T10:27:53.847Z,76.39
2017-09-21T10:28:53.876Z,76.67
2017-09-21T10:29:53.808Z,76.10
2017-09-21T10:30:53.820Z,76.14
2017-09-21T10:31:53.816Z,75.37
2017-09-21T10:32:53.768Z,75.02
2017-09-21T10:33:53.874Z,74.93
2017-09-21T10:34:53.856Z,74.84
2017-09-21T10:35:53.740Z,74.55
2017-09-21T10:36:53.734Z,74.58
2017-09-21T10:37:53.658Z,74.87
2017-09-21T10:38:53.633Z,74.26
2017-09-21T10:39:53.613Z,74.58
2017-09-21T10:40:53.608Z,74.01
2017-09-21T10:41:53.636Z,73.54
2017-09-21T10:42:53.574Z,73.82
2017-09-21T10:43:53.554Z,73.34
2017-09-21T10:44:53.522Z,73.54
2017-09-21T10:45:53.549Z,73.19
2017-09-21T10:46:53.497Z,73.19
2017-09-21T10:47:53.514Z,73.47
2017-09-21T10:48:53.463Z,72.99
2017-09-21T10:49:53.477Z,73.28
2017-09-21T10:50:53.432Z,73.09
2017-09-21T10:51:53.447Z,72.03
2017-09-21T10:52:53.414Z,71.98
2017-09-21T10:53:53.382Z,71.11
2017-09-21T10:54:53.364Z,71.15
2017-09-21T10:55:53.409Z,70.76
2017-09-21T10:56:53.369Z,71.05
2017-09-21T10:57:53.351Z,71.25
2017-09-21T10:58:53.360Z,71.15
2017-09-21T10:59:53.352Z,70.67
2017-09-21T11:00:53.333Z,70.29
2017-09-21T11:01:53.289Z,70.57
2017-09-21T11:02:53.283Z,70.38
2017-09-21T11:03:53.268Z,70.13
2017-09-21T11:04:53.236Z,70.42
2017-09-21T11:05:53.354Z,69.78
2017-09-21T11:06:53.199Z,68.66
2017-09-21T11:07:53.235Z,68.57
2017-09-21T11:08:53.237Z,67.74
2017-09-21T11:09:53.178Z,67.25
2017-09-21T11:10:53.201Z,65.63
2017-09-21T11:11:53.169Z,63.31
2017-09-21T11:12:53.102Z,59.48
2017-09-21T11:13:53.076Z,57.05
2017-09-21T11:14:53.084Z,54.81
2017-09-21T11:15:53.062Z,53.39
2017-09-21T11:16:53.083Z,53.39
2017-09-21T11:17:53.072Z,54.43
2017-09-21T11:18:53.068Z,56.67
2017-09-21T11:19:53.046Z,59.12
2017-09-21T11:20:53.036Z,60.99
2017-09-21T11:21:52.993Z,61.19
2017-09-21T11:22:53.003Z,60.54
2017-09-21T11:23:52.955Z,59.51
2017-09-21T11:24:53.001Z,58.70
2017-09-21T11:25:52.946Z,57.18
2017-09-21T11:26:52.947Z,56.43
2017-09-21T11:27:52.930Z,56.07
2017-09-21T11:28:52.865Z,55.40
2017-09-21T11:29:52.885Z,55.32
2017-09-21T11:30:52.914Z,55.04
2017-09-21T11:31:52.864Z,55.04
2017-09-21T11:32:52.880Z,54.94
2017-09-21T11:33:52.868Z,55.22
2017-09-21T11:34:53.522Z,55.22
2017-09-21T11:35:52.842Z,55.13
2017-09-21T11:36:52.802Z,55.71
2017-09-21T11:37:52.790Z,55.62
2017-09-21T11:38:52.777Z,56.56
2017-09-21T11:39:52.750Z,56.36
2017-09-21T11:40:52.808Z,56.72
2017-09-21T11:41:52.788Z,56.92
2017-09-21T11:42:52.817Z,56.43
2017-09-21T11:43:52.734Z,57.30
2017-09-21T11:44:52.768Z,56.43
2017-09-21T11:45:52.690Z,56.75
2017-09-21T11:46:52.695Z,56.92
2017-09-21T11:47:52.779Z,56.14
2017-09-21T11:48:52.690Z,56.43
2017-09-21T11:49:52.710Z,56.26
2017-09-21T11:50:52.704Z,55.78
2017-09-21T11:51:52.593Z,55.40
2017-09-21T11:52:52.663Z,55.13
2017-09-21T11:53:52.620Z,54.94
2017-09-21T11:54:52.556Z,54.06
2017-09-21T11:55:52.581Z,53.99
2017-09-21T11:56:52.591Z,53.41
2017-09-21T11:57:52.514Z,52.95
2017-09-21T11:58:52.563Z,52.95
2017-09-21T11:59:52.511Z,53.34
2017-09-21T12:00:52.536Z,53.24
2017-09-21T12:01:52.484Z,53.12
2017-09-21T12:02:52.484Z,53.34
2017-09-21T12:03:52.471Z,52.86
2017-09-21T12:04:52.485Z,52.56
2017-09-21T12:05:52.455Z,52.37
2017-09-21T12:06:52.422Z,51.89
2017-09-21T12:07:53.034Z,52.47
2017-09-21T12:08:52.437Z,52.08
2017-09-21T12:09:52.405Z,52.28
2017-09-21T12:10:52.418Z,51.79
2017-09-21T12:11:52.389Z,51.33
2017-09-21T12:12:52.417Z,50.94
2017-09-21T12:13:52.380Z,50.84
2017-09-21T12:14:52.425Z,50.82
2017-09-21T12:15:52.355Z,51.53
2017-09-21T12:16:52.407Z,50.82
2017-09-21T12:17:52.397Z,50.84
2017-09-21T12:18:52.371Z,50.56
2017-09-21T12:19:52.319Z,50.09
2017-09-21T12:20:52.331Z,49.80
2017-09-21T12:21:52.291Z,49.90
2017-09-21T12:22:52.308Z,49.80
2017-09-21T12:23:52.364Z,49.54
2017-09-21T12:24:53.038Z,49.51
2017-09-21T12:25:52.258Z,49.51
2017-09-21T12:26:52.227Z,49.32
2017-09-21T12:27:52.320Z,49.22
2017-09-21T12:28:52.237Z,49.34
2017-09-21T12:29:52.313Z,49.24
2017-09-21T12:30:52.184Z,49.32
2017-09-21T12:31:52.235Z,49.02
2017-09-21T12:32:52.177Z,48.66
2017-09-21T12:33:52.220Z,48.93
2017-09-21T12:34:52.168Z,49.32
2017-09-21T12:35:52.315Z,49.12
2017-09-21T12:36:52.184Z,49.29
2017-09-21T12:37:52.161Z,48.93
2017-09-21T12:38:52.134Z,49.19
2017-09-21T12:39:52.092Z,49.19
2017-09-21T12:40:52.092Z,48.54
2017-09-21T12:41:52.151Z,48.73
2017-09-21T12:42:52.119Z,48.15
2017-09-21T12:43:52.096Z,48.25
2017-09-21T12:44:52.673Z,48.80
2017-09-21T12:45:52.070Z,49.00
2017-09-21T12:46:52.045Z,49.27
2017-09-21T12:47:52.063Z,49.27
2017-09-21T12:48:52.049Z,48.78
2017-09-21T12:49:51.994Z,49.37
2017-09-21T12:50:51.999Z,49.73
2017-09-21T12:51:52.012Z,50.02
2017-09-21T12:52:51.977Z,50.57
2017-09-21T12:53:51.998Z,50.84
2017-09-21T12:54:51.998Z,51.42
2017-09-21T12:55:51.953Z,51.01